Terminal Aerodrome Forecast
Issued by NWS

Home | Current Version | Previous Version | Text Only | Print | Product List | Glossary On
Versions: 1 2 3 4 5 6 7 8 9 10 11 12 13 14
000
FTUS43 KBIS 310500
TAFMOT
TAF
KMOT 310533Z 3106/0106 22003KT P6SM SKC
     FM311000 VRB03KT P6SM SCT070 BKN100
     FM311700 14004KT P6SM SCT060 SCT100
     FM312200 05006KT P6SM SCT070=

USA.gov is the U.S. government's official web portal to all federal, state and local government web resources and services.